Time,TemperatureF,DewpointF,PressureIn,WindDirection,WindDirectionDegrees,WindSpeedMPH,WindSpeedGustMPH,Humidity,HourlyPrecipIn,Conditions,Clouds,dailyrainin,SoftwareType,DateUTC
2013-04-25 00:01:00,43.2,13.1,29.98,SW,223,10.5,10.5,29,0.00,,CLR,0.00,VWS V14.01,2013-04-25 06:01:00,
2013-04-25 00:06:00,42.1,12.9,29.98,WSW,238,8.7,15.4,30,0.00,,CLR,0.00,VWS V14.01,2013-04-25 06:06:00,
2013-04-25 00:11:00,41.2,12.1,29.98,SW,222,8.3,22.4,30,0.00,,CLR,0.00,VWS V14.01,2013-04-25 06:11:00,
2013-04-25 00:16:00,40.5,12.2,29.98,WSW,250,15.4,22.4,31,0.00,,CLR,0.00,VWS V14.01,2013-04-25 06:16:00,
2013-04-25 00:21:00,39.7,11.6,29.98,South,191,8.7,22.4,31,0.00,,CLR,0.00,VWS V14.01,2013-04-25 06:21:00,
2013-04-25 00:26:00,40.5,12.2,29.98,SSE,162,11.0,22.4,31,0.00,,CLR,0.00,VWS V14.01,2013-04-25 06:26:00,
2013-04-25 00:31:00,40.1,12.6,29.98,South,191,13.2,22.4,32,0.00,,CLR,0.00,VWS V14.01,2013-04-25 06:31:00,
2013-04-25 00:36:00,40.5,12.2,29.98,SSW,193,11.0,12.8,31,0.00,,CLR,0.00,VWS V14.01,2013-04-25 06:36:00,
2013-04-25 00:41:00,40.5,12.2,29.98,South,170,6.3,12.8,31,0.00,,CLR,0.00,VWS V14.01,2013-04-25 06:41:00,
2013-04-25 00:46:00,39.7,10.9,29.98,WSW,240,9.6,12.8,30,0.00,,CLR,0.00,VWS V14.01,2013-04-25 06:46:00,
2013-04-25 00:51:00,41.2,12.1,29.98,WSW,241,10.1,12.8,30,0.00,,CLR,0.00,VWS V14.01,2013-04-25 06:51:00,
2013-04-25 00:56:00,40.1,11.2,29.98,SSW,208,4.0,12.8,30,0.00,,CLR,0.00,VWS V14.01,2013-04-25 06:56:00,
2013-04-25 01:01:00,39.2,10.4,29.98,SSW,206,4.9,4.9,30,0.00,,CLR,0.00,VWS V14.01,2013-04-25 07:01:00,
2013-04-25 01:06:00,42.4,12.4,29.98,NNW,345,8.1,14.5,29,0.00,,CLR,0.00,VWS V14.01,2013-04-25 07:06:00,
2013-04-25 01:11:00,43.0,12.9,29.98,NW,325,11.0,24.2,29,0.00,,CLR,0.00,VWS V14.01,2013-04-25 07:11:00,
2013-04-25 01:16:00,42.8,12.8,29.98,WNW,302,7.2,24.2,29,0.00,,CLR,0.00,VWS V14.01,2013-04-25 07:16:00,
2013-04-25 01:21:00,43.3,12.4,29.98,NW,313,10.1,24.2,28,0.00,,CLR,0.00,VWS V14.01,2013-04-25 07:21:00,
2013-04-25 01:26:00,43.3,12.4,29.98,West,267,6.3,24.2,28,0.00,,CLR,0.00,VWS V14.01,2013-04-25 07:26:00,
2013-04-25 01:31:00,43.7,12.8,29.98,NW,317,5.4,24.2,28,0.00,,CLR,0.00,VWS V14.01,2013-04-25 07:31:00,
2013-04-25 01:36:00,42.4,12.4,29.98,WNW,297,8.7,18.8,29,0.00,,CLR,0.00,VWS V14.01,2013-04-25 07:36:00,
2013-04-25 01:41:00,41.4,11.5,29.98,SW,219,5.4,18.8,29,0.00,,CLR,0.00,VWS V14.01,2013-04-25 07:41:00,
2013-04-25 01:46:00,40.8,11.8,29.98,West,260,10.5,18.8,30,0.00,,CLR,0.00,VWS V14.01,2013-04-25 07:46:00,
2013-04-25 01:51:00,40.6,11.6,29.98,WSW,257,2.7,18.8,30,0.00,,CLR,0.00,VWS V14.01,2013-04-25 07:51:00,
2013-04-25 01:56:00,41.4,11.5,29.98,West,260,8.1,18.8,29,0.00,,CLR,0.00,VWS V14.01,2013-04-25 07:56:00,
2013-04-25 02:01:00,40.1,11.2,29.98,West,263,6.7,18.8,30,0.00,,CLR,0.00,VWS V14.01,2013-04-25 08:01:00,
2013-04-25 02:06:00,39.4,10.5,29.98,WSW,254,6.3,9.2,30,0.00,,CLR,0.00,VWS V14.01,2013-04-25 08:06:00,
2013-04-25 02:11:00,39.7,10.9,29.98,WSW,239,6.7,9.2,30,0.00,,CLR,0.00,VWS V14.01,2013-04-25 08:11:00,
2013-04-25 02:16:00,39.2,10.4,29.98,WSW,248,8.3,11.0,30,0.00,,CLR,0.00,VWS V14.01,2013-04-25 08:16:00,
2013-04-25 02:21:00,38.5,10.5,29.98,SSE,165,3.1,11.0,31,0.00,,CLR,0.00,VWS V14.01,2013-04-25 08:21:00,
2013-04-25 02:26:00,38.1,10.2,29.98,East,86,3.6,11.0,31,0.00,,CLR,0.00,VWS V14.01,2013-04-25 08:26:00,
2013-04-25 02:31:00,37.0,9.9,29.98,NNW,333,3.6,11.0,32,0.00,,CLR,0.00,VWS V14.01,2013-04-25 08:31:00,
2013-04-25 02:36:00,37.4,9.5,29.98,SSW,193,4.9,5.4,31,0.00,,CLR,0.00,VWS V14.01,2013-04-25 08:36:00,
2013-04-25 02:41:00,37.6,10.4,29.98,NNE,15,2.2,7.6,32,0.00,,CLR,0.00,VWS V14.01,2013-04-25 08:41:00,
2013-04-25 02:46:00,37.2,10.1,29.98,SSE,167,5.8,7.6,32,0.00,,CLR,0.00,VWS V14.01,2013-04-25 08:46:00,
2013-04-25 02:51:00,37.6,10.4,29.98,SSE,159,4.0,8.3,32,0.00,,CLR,0.00,VWS V14.01,2013-04-25 08:51:00,
2013-04-25 02:56:00,39.6,11.4,29.98,WNW,291,6.3,9.6,31,0.00,,CLR,0.00,VWS V14.01,2013-04-25 08:56:00,
2013-04-25 03:01:00,38.8,10.8,29.98,SW,220,7.6,13.6,31,0.00,,CLR,0.00,VWS V14.01,2013-04-25 09:01:00,
2013-04-25 03:06:00,38.8,11.5,29.98,SW,227,8.1,10.5,32,0.00,,CLR,0.00,VWS V14.01,2013-04-25 09:06:00,
2013-04-25 03:11:00,39.6,11.4,29.98,SSW,203,8.1,12.8,31,0.00,,CLR,0.00,VWS V14.01,2013-04-25 09:11:00,
2013-04-25 03:16:00,39.4,11.3,29.98,SSW,210,5.4,12.8,31,0.00,,CLR,0.00,VWS V14.01,2013-04-25 09:16:00,
2013-04-25 03:21:00,41.5,12.4,29.98,NW,315,9.6,12.8,30,0.00,,CLR,0.00,VWS V14.01,2013-04-25 09:21:00,
2013-04-25 03:26:00,42.4,12.4,29.98,WNW,291,19.7,19.7,29,0.00,,CLR,0.00,VWS V14.01,2013-04-25 09:26:00,
2013-04-25 03:31:00,44.6,13.5,29.98,WNW,286,8.7,19.7,28,0.00,,CLR,0.00,VWS V14.01,2013-04-25 09:31:00,
2013-04-25 03:36:00,44.8,13.7,29.98,WSW,256,5.4,12.8,28,0.00,,CLR,0.00,VWS V14.01,2013-04-25 09:36:00,
2013-04-25 03:41:00,43.2,13.1,29.98,WSW,253,3.6,12.8,29,0.00,,CLR,0.00,VWS V14.01,2013-04-25 09:41:00,
2013-04-25 03:46:00,42.3,12.3,29.98,West,261,5.4,12.8,29,0.00,,CLR,0.00,VWS V14.01,2013-04-25 09:46:00,
2013-04-25 03:51:00,41.9,12.0,29.98,WSW,248,8.7,13.2,29,0.00,,CLR,0.00,VWS V14.01,2013-04-25 09:51:00,
2013-04-25 03:56:00,42.3,12.3,29.98,West,260,10.1,22.8,29,0.00,,CLR,0.00,VWS V14.01,2013-04-25 09:56:00,
2013-04-25 04:01:00,42.3,12.3,29.98,WNW,283,8.1,22.8,29,0.00,,CLR,0.00,VWS V14.01,2013-04-25 10:01:00,
2013-04-25 04:06:00,41.5,12.4,29.98,WSW,240,10.1,10.1,30,0.00,,CLR,0.00,VWS V14.01,2013-04-25 10:06:00,
2013-04-25 04:11:00,42.3,12.3,29.98,WSW,237,8.3,11.0,29,0.00,,CLR,0.00,VWS V14.01,2013-04-25 10:11:00,
2013-04-25 04:16:00,41.9,12.0,29.98,WSW,238,10.5,15.0,29,0.00,,CLR,0.00,VWS V14.01,2013-04-25 10:16:00,
2013-04-25 04:20:00,43.0,12.9,29.98,West,270,11.0,15.0,29,0.00,,CLR,0.00,VWS V14.01,2013-04-25 10:20:00,
2013-04-25 04:25:00,43.0,12.9,29.95,West,274,9.6,15.0,29,0.00,,CLR,0.00,VWS V14.01,2013-04-25 10:25:00,
2013-04-25 04:30:00,41.9,12.0,29.95,WSW,244,4.9,15.0,29,0.00,,CLR,0.00,VWS V14.01,2013-04-25 10:30:00,
2013-04-25 04:35:00,41.0,11.2,29.95,West,279,4.0,4.9,29,0.00,,CLR,0.00,VWS V14.01,2013-04-25 10:35:00,
2013-04-25 04:40:00,40.5,11.5,29.98,West,277,3.6,4.9,30,0.00,,CLR,0.00,VWS V14.01,2013-04-25 10:40:00,
2013-04-25 04:45:00,39.4,10.5,29.98,WSW,240,2.7,5.8,30,0.00,,CLR,0.00,VWS V14.01,2013-04-25 10:45:00,
2013-04-25 04:50:00,38.8,10.1,29.98,WSW,246,0.0,5.8,30,0.00,,CLR,0.00,VWS V14.01,2013-04-25 10:50:00,
2013-04-25 04:55:00,38.7,9.9,29.98,West,259,3.6,5.8,30,0.00,,CLR,0.00,VWS V14.01,2013-04-25 10:55:00,
2013-04-25 05:00:00,38.8,10.1,29.95,SW,219,4.5,5.8,30,0.00,,CLR,0.00,VWS V14.01,2013-04-25 11:00:00,
2013-04-25 05:05:00,38.8,10.8,29.95,WSW,250,3.6,5.4,31,0.00,,CLR,0.00,VWS V14.01,2013-04-25 11:05:00,
2013-04-25 05:10:00,38.3,9.6,29.95,SW,220,8.1,8.3,30,0.00,,CLR,0.00,VWS V14.01,2013-04-25 11:10:00,
2013-04-25 05:15:00,38.7,9.9,29.95,WSW,241,8.3,8.7,30,0.00,,CLR,0.00,VWS V14.01,2013-04-25 11:15:00,
2013-04-25 05:20:00,39.7,10.9,29.95,SW,221,7.6,11.0,30,0.00,,CLR,0.00,VWS V14.01,2013-04-25 11:20:00,
2013-04-25 05:25:00,39.7,10.9,29.98,SW,223,8.1,14.5,30,0.00,,CLR,0.00,VWS V14.01,2013-04-25 11:25:00,
2013-04-25 05:30:00,39.6,10.7,29.98,WSW,237,7.6,14.5,30,0.00,,CLR,0.00,VWS V14.01,2013-04-25 11:30:00,
2013-04-25 05:35:00,39.2,10.4,29.98,SW,221,4.9,9.6,30,0.00,,CLR,0.00,VWS V14.01,2013-04-25 11:35:00,
2013-04-25 05:40:00,38.7,9.9,29.98,SW,216,5.8,9.6,30,0.00,,CLR,0.00,VWS V14.01,2013-04-25 11:40:00,
2013-04-25 05:45:00,38.3,9.6,29.95,SW,236,8.7,12.3,30,0.00,,CLR,0.00,VWS V14.01,2013-04-25 11:45:00,
2013-04-25 05:50:00,39.4,10.5,29.95,SW,224,9.6,12.3,30,0.00,,CLR,0.00,VWS V14.01,2013-04-25 11:50:00,
2013-04-25 05:55:00,39.4,10.5,29.98,SW,232,8.3,13.2,30,0.00,,CLR,0.00,VWS V14.01,2013-04-25 11:55:00,
2013-04-25 06:00:00,38.5,9.8,29.98,SW,230,10.1,13.2,30,0.00,,CLR,0.00,VWS V14.01,2013-04-25 12:00:00,
2013-04-25 06:05:00,37.2,8.6,29.98,SSW,209,8.7,10.1,30,0.00,,CLR,0.00,VWS V14.01,2013-04-25 12:05:00,
2013-04-25 06:10:00,37.4,8.8,29.98,SSW,199,7.2,10.1,30,0.00,,CLR,0.00,VWS V14.01,2013-04-25 12:10:00,
2013-04-25 06:15:00,36.7,8.2,29.98,South,182,6.3,10.1,30,0.00,,CLR,0.00,VWS V14.01,2013-04-25 12:15:00,
2013-04-25 06:20:00,37.0,9.2,29.98,South,186,5.4,10.1,31,0.00,,CLR,0.00,VWS V14.01,2013-04-25 12:20:00,
2013-04-25 06:25:00,36.3,8.6,29.98,SSW,192,6.7,10.1,31,0.00,,CLR,0.00,VWS V14.01,2013-04-25 12:25:00,
2013-04-25 06:30:00,36.0,8.3,29.98,SSW,207,5.8,10.1,31,0.00,,CLR,0.00,VWS V14.01,2013-04-25 12:30:00,
2013-04-25 06:35:00,35.6,8.0,29.98,SSW,196,5.8,8.1,31,0.00,,CLR,0.00,VWS V14.01,2013-04-25 12:35:00,
2013-04-25 06:40:00,35.6,8.0,29.98,South,184,6.3,8.1,31,0.00,,CLR,0.00,VWS V14.01,2013-04-25 12:40:00,
2013-04-25 06:45:00,36.5,8.8,29.98,SSW,196,4.9,8.7,31,0.00,,CLR,0.00,VWS V14.01,2013-04-25 12:45:00,
2013-04-25 06:50:00,39.7,10.9,29.98,South,171,5.4,8.7,30,0.00,,CLR,0.00,VWS V14.01,2013-04-25 12:50:00,
2013-04-25 06:55:00,42.1,12.1,29.98,South,171,6.3,8.7,29,0.00,,CLR,0.00,VWS V14.01,2013-04-25 12:55:00,
2013-04-25 07:00:00,41.9,12.0,29.95,SE,145,7.2,8.7,29,0.00,,CLR,0.00,VWS V14.01,2013-04-25 13:00:00,
2013-04-25 07:05:00,39.6,10.7,29.95,ESE,113,5.8,7.6,30,0.00,,CLR,0.00,VWS V14.01,2013-04-25 13:05:00,
2013-04-25 07:10:00,39.6,10.7,29.95,SSE,151,6.3,8.3,30,0.00,,CLR,0.00,VWS V14.01,2013-04-25 13:10:00,
2013-04-25 07:15:00,39.7,10.9,29.95,SSE,161,5.4,8.3,30,0.00,,CLR,0.00,VWS V14.01,2013-04-25 13:15:00,
2013-04-25 07:20:00,40.5,11.5,29.95,SSE,155,4.9,8.3,30,0.00,,CLR,0.00,VWS V14.01,2013-04-25 13:20:00,
2013-04-25 07:25:00,42.6,12.6,29.95,SE,145,5.8,8.3,29,0.00,,CLR,0.00,VWS V14.01,2013-04-25 13:25:00,
2013-04-25 07:30:00,44.8,14.5,29.95,SE,144,4.0,8.3,29,0.00,,CLR,0.00,VWS V14.01,2013-04-25 13:30:00,
2013-04-25 07:35:00,47.3,15.9,29.95,SE,131,3.1,6.3,28,0.00,,CLR,0.00,VWS V14.01,2013-04-25 13:35:00,
2013-04-25 07:40:00,48.7,16.3,29.95,SE,134,4.9,6.3,27,0.00,,CLR,0.00,VWS V14.01,2013-04-25 13:40:00,
2013-04-25 07:45:00,50.7,18.0,29.95,SE,125,5.4,6.3,27,0.00,,CLR,0.00,VWS V14.01,2013-04-25 13:45:00,
2013-04-25 07:50:00,50.2,16.6,29.95,ESE,120,5.8,8.7,26,0.00,,CLR,0.00,VWS V14.01,2013-04-25 13:50:00,
2013-04-25 07:55:00,52.3,18.5,29.95,South,170,3.6,8.7,26,0.00,,CLR,0.00,VWS V14.01,2013-04-25 13:55:00,
2013-04-25 08:00:00,51.6,17.9,29.95,SE,131,6.3,8.7,26,0.00,,CLR,0.00,VWS V14.01,2013-04-25 14:00:00,
2013-04-25 08:05:00,50.5,17.0,29.95,SE,138,5.8,8.1,26,0.00,,CLR,0.00,VWS V14.01,2013-04-25 14:05:00,
2013-04-25 08:10:00,50.2,16.6,29.95,East,99,6.3,8.1,26,0.00,,CLR,0.00,VWS V14.01,2013-04-25 14:10:00,
2013-04-25 08:15:00,51.6,16.0,29.95,East,90,3.6,10.5,24,0.00,,CLR,0.00,VWS V14.01,2013-04-25 14:15:00,
2013-04-25 08:20:00,52.7,13.9,29.95,ENE,72,4.0,10.5,21,0.00,,CLR,0.00,VWS V14.01,2013-04-25 14:20:00,
2013-04-25 08:25:00,55.4,15.0,29.95,ESE,105,3.6,10.5,20,0.00,,CLR,0.00,VWS V14.01,2013-04-25 14:25:00,
2013-04-25 08:30:00,54.7,17.6,29.98,ENE,67,5.8,10.5,23,0.00,,CLR,0.00,VWS V14.01,2013-04-25 14:30:00,
2013-04-25 08:35:00,56.7,16.1,29.98,SE,133,6.3,6.3,20,0.00,,CLR,0.00,VWS V14.01,2013-04-25 14:35:00,
2013-04-25 08:40:00,57.6,13.1,29.98,SE,136,2.7,7.6,17,0.00,,CLR,0.00,VWS V14.01,2013-04-25 14:40:00,
2013-04-25 08:45:00,56.7,16.1,29.98,East,94,2.2,7.6,20,0.00,,CLR,0.00,VWS V14.01,2013-04-25 14:45:00,
2013-04-25 08:50:00,57.4,12.9,29.98,ESE,116,2.7,7.6,17,0.00,,CLR,0.00,VWS V14.01,2013-04-25 14:50:00,
2013-04-25 08:55:00,59.9,10.6,29.98,ESE,104,0.0,7.6,14,0.00,,CLR,0.00,VWS V14.01,2013-04-25 14:55:00,
2013-04-25 09:00:00,58.8,9.8,29.98,NE,52,0.0,7.6,14,0.00,,CLR,0.00,VWS V14.01,2013-04-25 15:00:00,
2013-04-25 09:05:00,60.1,15.1,29.98,SE,125,2.7,5.4,17,0.00,,CLR,0.00,VWS V14.01,2013-04-25 15:05:00,
2013-04-25 09:10:00,56.8,9.7,29.98,ESE,108,3.6,5.4,15,0.00,,CLR,0.00,VWS V14.01,2013-04-25 15:10:00,
2013-04-25 09:15:00,55.8,11.6,29.95,ESE,111,4.9,5.4,17,0.00,,CLR,0.00,VWS V14.01,2013-04-25 15:15:00,
2013-04-25 09:20:00,52.9,10.6,29.95,ESE,106,4.9,6.3,18,0.00,,CLR,0.00,VWS V14.01,2013-04-25 15:20:00,
2013-04-25 09:25:00,54.0,7.4,29.95,ENE,72,2.2,6.3,15,0.00,,CLR,0.00,VWS V14.01,2013-04-25 15:25:00,
2013-04-25 09:30:00,51.6,10.7,29.95,ENE,58,4.0,6.3,19,0.00,,CLR,0.00,VWS V14.01,2013-04-25 15:30:00,
2013-04-25 09:35:00,49.6,11.3,29.95,NNE,28,4.0,5.4,21,0.00,,CLR,0.00,VWS V14.01,2013-04-25 15:35:00,
2013-04-25 09:40:00,53.2,14.3,29.95,NNE,33,0.0,5.4,21,0.00,,CLR,0.00,VWS V14.01,2013-04-25 15:40:00,
2013-04-25 09:45:00,55.2,12.5,29.95,NNE,33,0.0,5.4,18,0.00,,CLR,0.00,VWS V14.01,2013-04-25 15:45:00,
2013-04-25 09:50:00,55.0,12.3,29.95,NNE,33,0.0,5.4,18,0.00,,CLR,0.00,VWS V14.01,2013-04-25 15:50:00,
2013-04-25 09:55:00,55.6,11.5,29.95,NNE,17,3.1,5.4,17,0.00,,CLR,0.00,VWS V14.01,2013-04-25 15:55:00,
2013-04-25 10:00:00,53.8,11.3,29.95,North,353,2.7,5.4,18,0.00,,CLR,0.00,VWS V14.01,2013-04-25 16:00:00,
2013-04-25 10:05:00,52.2,10.0,29.95,North,4,2.7,4.0,18,0.00,,CLR,0.00,VWS V14.01,2013-04-25 16:05:00,
2013-04-25 10:10:00,55.6,11.5,29.95,NE,43,2.7,5.4,17,0.00,,CLR,0.00,VWS V14.01,2013-04-25 16:10:00,
2013-04-25 10:15:00,56.3,12.1,29.98,North,10,0.0,5.4,17,0.00,,CLR,0.00,VWS V14.01,2013-04-25 16:15:00,
2013-04-25 10:20:00,54.1,11.6,29.98,North,7,2.2,5.4,18,0.00,,CLR,0.00,VWS V14.01,2013-04-25 16:20:00,
2013-04-25 10:25:00,53.6,11.1,29.98,NNE,19,3.6,5.4,18,0.00,,CLR,0.00,VWS V14.01,2013-04-25 16:25:00,
2013-04-25 10:30:00,53.8,7.2,29.98,NNW,333,0.0,5.4,15,0.00,,CLR,0.00,VWS V14.01,2013-04-25 16:30:00,
2013-04-25 10:35:00,53.6,11.1,29.98,North,357,4.0,4.9,18,0.00,,CLR,0.00,VWS V14.01,2013-04-25 16:35:00,
2013-04-25 10:40:00,54.1,11.6,29.98,NW,324,2.7,4.9,18,0.00,,CLR,0.00,VWS V14.01,2013-04-25 16:40:00,
2013-04-25 10:45:00,55.0,12.3,29.98,NNE,33,2.7,4.9,18,0.00,,CLR,0.00,VWS V14.01,2013-04-25 16:45:00,
2013-04-25 10:50:00,54.7,8.0,29.98,NNE,27,4.0,4.9,15,0.00,,CLR,0.00,VWS V14.01,2013-04-25 16:50:00,
2013-04-25 10:55:00,54.0,7.4,29.98,NNE,19,4.0,6.3,15,0.00,,CLR,0.00,VWS V14.01,2013-04-25 16:55:00,
2013-04-25 11:00:00,53.4,8.4,29.98,NE,43,4.0,6.3,16,0.00,,CLR,0.00,VWS V14.01,2013-04-25 17:00:00,
2013-04-25 11:05:00,53.2,8.2,29.98,North,353,3.6,4.9,16,0.00,,CLR,0.00,VWS V14.01,2013-04-25 17:05:00,
2013-04-25 11:10:00,51.8,7.1,29.98,NNE,23,6.3,6.3,16,0.00,,CLR,0.00,VWS V14.01,2013-04-25 17:10:00,
2013-04-25 11:15:00,52.2,10.0,29.95,ENE,70,4.9,8.1,18,0.00,,CLR,0.00,VWS V14.01,2013-04-25 17:15:00,
2013-04-25 11:20:00,51.6,10.7,29.95,ENE,64,5.8,8.1,19,0.00,,CLR,0.00,VWS V14.01,2013-04-25 17:20:00,
2013-04-25 11:25:00,52.3,10.1,29.95,NNW,334,5.8,10.5,18,0.00,,CLR,0.00,VWS V14.01,2013-04-25 17:25:00,
2013-04-25 11:30:00,50.5,9.8,29.95,North,353,8.7,10.5,19,0.00,,CLR,0.00,VWS V14.01,2013-04-25 17:30:00,
2013-04-25 11:35:00,50.2,9.5,29.95,NNW,346,8.3,9.6,19,0.00,,CLR,0.00,VWS V14.01,2013-04-25 17:35:00,
2013-04-25 11:40:00,51.1,10.3,29.95,North,357,6.3,9.6,19,0.00,,CLR,0.00,VWS V14.01,2013-04-25 17:40:00,
2013-04-25 11:45:00,50.7,10.0,29.95,NNE,15,5.4,9.6,19,0.00,,CLR,0.00,VWS V14.01,2013-04-25 17:45:00,
2013-04-25 11:50:00,51.8,9.7,29.95,ENE,60,4.0,9.6,18,0.00,,CLR,0.00,VWS V14.01,2013-04-25 17:50:00,
2013-04-25 11:55:00,50.0,9.4,29.95,NNW,344,8.1,12.8,19,0.00,,CLR,0.00,VWS V14.01,2013-04-25 17:55:00,
2013-04-25 12:00:00,50.0,11.6,29.95,NW,312,8.7,15.0,21,0.00,,CLR,0.00,VWS V14.01,2013-04-25 18:00:00,
2013-04-25 12:05:00,50.7,12.2,29.95,NW,322,6.7,15.0,21,0.00,,CLR,0.00,VWS V14.01,2013-04-25 18:05:00,
2013-04-25 12:10:00,51.6,13.0,29.95,NW,319,3.6,15.0,21,0.00,,CLR,0.00,VWS V14.01,2013-04-25 18:10:00,
2013-04-25 12:15:00,50.7,12.2,29.95,North,353,3.6,15.0,21,0.00,,CLR,0.00,VWS V14.01,2013-04-25 18:15:00,
2013-04-25 12:20:00,50.5,12.1,29.95,NW,308,10.5,15.0,21,0.00,,CLR,0.00,VWS V14.01,2013-04-25 18:20:00,
2013-04-25 12:25:00,50.2,11.8,29.95,NNW,333,11.0,15.9,21,0.00,,CLR,0.00,VWS V14.01,2013-04-25 18:25:00,
2013-04-25 12:30:00,50.9,15.4,29.95,NNE,15,6.3,15.9,24,0.00,,CLR,0.00,VWS V14.01,2013-04-25 18:30:00,
2013-04-25 12:35:00,51.1,12.5,29.95,North,350,5.4,10.5,21,0.00,,CLR,0.00,VWS V14.01,2013-04-25 18:35:00,
2013-04-25 12:40:00,51.8,13.1,29.95,West,263,0.0,10.5,21,0.00,,CLR,0.00,VWS V14.01,2013-04-25 18:40:00,
2013-04-25 12:45:00,54.5,14.3,29.95,SE,136,5.4,10.5,20,0.00,,CLR,0.00,VWS V14.01,2013-04-25 18:45:00,
2013-04-25 12:50:00,54.3,14.1,29.95,WNW,289,6.7,10.5,20,0.00,,CLR,0.00,VWS V14.01,2013-04-25 18:50:00,
2013-04-25 12:55:00,56.3,12.1,29.95,SW,214,4.9,11.9,17,0.00,,CLR,0.00,VWS V14.01,2013-04-25 18:55:00,
2013-04-25 13:00:00,55.4,11.3,29.95,NNE,17,2.7,11.9,17,0.00,,CLR,0.00,VWS V14.01,2013-04-25 19:00:00,
2013-04-25 13:05:00,56.8,16.2,29.95,West,266,4.0,4.5,20,0.00,,CLR,0.00,VWS V14.01,2013-04-25 19:05:00,
2013-04-25 13:10:00,55.8,11.6,29.95,SSW,199,0.0,8.1,17,0.00,,CLR,0.00,VWS V14.01,2013-04-25 19:10:00,
2013-04-25 13:15:00,54.9,14.6,29.95,WSW,254,8.3,12.3,20,0.00,,CLR,0.00,VWS V14.01,2013-04-25 19:15:00,
2013-04-25 13:20:00,54.1,14.0,29.95,WSW,243,12.8,15.0,20,0.00,,CLR,0.00,VWS V14.01,2013-04-25 19:20:00,
2013-04-25 13:25:00,54.0,13.8,29.95,WSW,246,11.0,15.4,20,0.00,,CLR,0.00,VWS V14.01,2013-04-25 19:25:00,
2013-04-25 13:30:00,53.2,14.3,29.95,NW,305,7.6,15.9,21,0.00,,CLR,0.00,VWS V14.01,2013-04-25 19:30:00,
2013-04-25 13:35:00,53.6,11.1,29.95,WSW,239,7.6,12.8,18,0.00,,CLR,0.00,VWS V14.01,2013-04-25 19:35:00,
2013-04-25 13:40:00,53.2,14.3,29.95,West,277,13.2,13.2,21,0.00,,CLR,0.00,VWS V14.01,2013-04-25 19:40:00,
2013-04-25 13:45:00,52.9,10.6,29.95,WSW,257,5.8,15.4,18,0.00,,CLR,0.00,VWS V14.01,2013-04-25 19:45:00,
2013-04-25 13:50:00,53.2,16.4,29.95,West,267,5.8,16.8,23,0.00,,CLR,0.00,VWS V14.01,2013-04-25 19:50:00,
2013-04-25 13:55:00,53.6,11.1,29.95,WNW,283,5.4,16.8,18,0.00,,CLR,0.00,VWS V14.01,2013-04-25 19:55:00,
2013-04-25 14:00:00,53.6,13.5,29.95,WNW,285,8.7,16.8,20,0.00,,CLR,0.00,VWS V14.01,2013-04-25 20:00:00,
2013-04-25 14:05:00,54.5,14.3,29.95,SSW,210,5.8,9.6,20,0.00,,CLR,0.00,VWS V14.01,2013-04-25 20:05:00,
2013-04-25 14:10:00,54.5,17.5,29.95,WSW,253,5.4,14.1,23,0.00,,CLR,0.00,VWS V14.01,2013-04-25 20:10:00,
2013-04-25 14:15:00,54.9,17.8,29.95,North,0,3.1,14.1,23,0.00,,CLR,0.00,VWS V14.01,2013-04-25 20:15:00,
2013-04-25 14:20:00,54.3,14.1,29.95,WNW,286,7.6,14.1,20,0.00,,CLR,0.00,VWS V14.01,2013-04-25 20:20:00,
2013-04-25 14:25:00,54.7,14.4,29.95,SW,233,7.6,15.0,20,0.00,,CLR,0.00,VWS V14.01,2013-04-25 20:25:00,
2013-04-25 14:30:00,55.0,14.7,29.95,WSW,239,6.3,15.0,20,0.00,,CLR,0.00,VWS V14.01,2013-04-25 20:30:00,
2013-04-25 14:35:00,55.9,15.5,29.95,West,263,9.2,14.5,20,0.00,,CLR,0.00,VWS V14.01,2013-04-25 20:35:00,
2013-04-25 14:40:00,57.6,15.6,29.95,WSW,250,8.3,15.0,19,0.00,,CLR,0.00,VWS V14.01,2013-04-25 20:40:00,
2013-04-25 14:45:00,59.2,17.0,29.95,WSW,242,8.7,15.0,19,0.00,,CLR,0.00,VWS V14.01,2013-04-25 20:45:00,
2013-04-25 14:50:00,59.2,20.4,29.95,WSW,257,6.3,15.0,22,0.00,,CLR,0.00,VWS V14.01,2013-04-25 20:50:00,
2013-04-25 14:55:00,58.5,19.8,29.95,West,275,12.3,15.0,22,0.00,,CLR,0.00,VWS V14.01,2013-04-25 20:55:00,
2013-04-25 15:00:00,58.6,16.5,29.95,SW,228,11.0,15.9,19,0.00,,CLR,0.00,VWS V14.01,2013-04-25 21:00:00,
2013-04-25 15:05:00,58.8,16.7,29.95,SW,230,11.0,17.9,19,0.00,,FEW110,0.00,VWS V14.01,2013-04-25 21:05:00,
2013-04-25 15:10:00,59.2,17.0,29.95,SSW,213,12.8,17.9,19,0.00,,FEW110,0.00,VWS V14.01,2013-04-25 21:10:00,
2013-04-25 15:15:00,58.8,16.7,29.95,SW,236,10.5,17.9,19,0.00,,FEW110,0.00,VWS V14.01,2013-04-25 21:15:00,
2013-04-25 15:20:00,59.4,17.1,29.95,WSW,246,12.8,17.9,19,0.00,,FEW110,0.00,VWS V14.01,2013-04-25 21:20:00,
2013-04-25 15:25:00,57.2,12.8,29.95,West,269,8.1,17.9,17,0.00,,FEW110,0.00,VWS V14.01,2013-04-25 21:25:00,
2013-04-25 15:30:00,59.2,17.0,29.95,WSW,256,8.7,17.9,19,0.00,,FEW110,0.00,VWS V14.01,2013-04-25 21:30:00,
2013-04-25 15:35:00,57.2,15.3,29.95,WNW,283,13.2,17.4,19,0.00,,FEW110,0.00,VWS V14.01,2013-04-25 21:35:00,
2013-04-25 15:40:00,59.4,17.1,29.95,West,261,5.8,17.4,19,0.00,,FEW110,0.00,VWS V14.01,2013-04-25 21:40:00,
2013-04-25 15:45:00,61.0,18.5,29.95,West,273,10.1,17.4,19,0.00,,FEW110,0.00,VWS V14.01,2013-04-25 21:45:00,
2013-04-25 15:50:00,60.1,17.7,29.95,West,268,8.7,17.4,19,0.00,,FEW110,0.00,VWS V14.01,2013-04-25 21:50:00,
2013-04-25 15:55:00,59.0,16.8,29.95,West,280,11.9,18.3,19,0.00,,FEW110,0.00,VWS V14.01,2013-04-25 21:55:00,
2013-04-25 16:00:00,59.0,16.8,29.95,West,271,8.3,19.7,19,0.00,,FEW110,0.00,VWS V14.01,2013-04-25 22:00:00,
2013-04-25 16:05:00,59.5,17.3,29.95,West,271,11.4,15.0,19,0.00,,CLR,0.00,VWS V14.01,2013-04-25 22:05:00,
2013-04-25 16:10:00,60.1,17.7,29.95,WSW,251,8.3,17.4,19,0.00,,CLR,0.00,VWS V14.01,2013-04-25 22:10:00,
2013-04-25 16:15:00,60.1,17.7,29.95,WNW,293,10.5,17.4,19,0.00,,CLR,0.00,VWS V14.01,2013-04-25 22:15:00,
2013-04-25 16:20:00,60.4,18.0,29.95,West,269,10.5,17.4,19,0.00,,CLR,0.00,VWS V14.01,2013-04-25 22:20:00,
2013-04-25 16:25:00,59.7,17.4,29.95,West,265,10.1,20.6,19,0.00,,CLR,0.00,VWS V14.01,2013-04-25 22:25:00,
2013-04-25 16:30:00,60.3,17.9,29.95,WSW,238,11.0,21.0,19,0.00,,CLR,0.00,VWS V14.01,2013-04-25 22:30:00,
2013-04-25 16:35:00,60.3,15.3,29.95,West,265,10.1,13.2,17,0.00,,CLR,0.00,VWS V14.01,2013-04-25 22:35:00,
2013-04-25 16:40:00,59.0,14.3,29.95,WSW,246,17.0,17.4,17,0.00,,CLR,0.00,VWS V14.01,2013-04-25 22:40:00,
2013-04-25 16:45:00,59.7,14.9,29.95,SW,234,6.3,19.7,17,0.00,,CLR,0.00,VWS V14.01,2013-04-25 22:45:00,
2013-04-25 16:50:00,59.0,14.3,29.95,SSW,212,11.0,19.7,17,0.00,,CLR,0.00,VWS V14.01,2013-04-25 22:50:00,
2013-04-25 16:55:00,59.4,14.6,29.95,SW,218,11.0,19.7,17,0.00,,CLR,0.00,VWS V14.01,2013-04-25 22:55:00,
2013-04-25 17:00:00,59.0,16.8,29.95,WSW,246,15.9,21.9,19,0.00,,CLR,0.00,VWS V14.01,2013-04-25 23:00:00,
2013-04-25 17:05:00,60.1,17.7,29.95,WSW,243,15.0,15.9,19,0.00,,CLR,0.00,VWS V14.01,2013-04-25 23:05:00,
2013-04-25 17:10:00,59.9,17.6,29.95,WSW,251,14.1,16.3,19,0.00,,CLR,0.00,VWS V14.01,2013-04-25 23:10:00,
2013-04-25 17:15:00,59.2,17.0,29.95,West,280,11.0,16.3,19,0.00,,CLR,0.00,VWS V14.01,2013-04-25 23:15:00,
2013-04-25 17:20:00,59.9,15.0,29.95,West,263,15.0,16.3,17,0.00,,CLR,0.00,VWS V14.01,2013-04-25 23:20:00,
2013-04-25 17:25:00,59.0,14.3,29.95,WSW,254,13.2,17.4,17,0.00,,CLR,0.00,VWS V14.01,2013-04-25 23:25:00,
2013-04-25 17:30:00,59.9,17.6,29.95,SW,231,10.5,17.4,19,0.00,,CLR,0.00,VWS V14.01,2013-04-25 23:30:00,
2013-04-25 17:35:00,58.8,14.1,29.95,WSW,257,11.0,14.5,17,0.00,,CLR,0.00,VWS V14.01,2013-04-25 23:35:00,
2013-04-25 17:40:00,59.0,14.3,29.95,WSW,249,10.5,14.5,17,0.00,,CLR,0.00,VWS V14.01,2013-04-25 23:40:00,
2013-04-25 17:45:00,58.1,16.1,29.95,West,277,8.7,14.5,19,0.00,,CLR,0.00,VWS V14.01,2013-04-25 23:45:00,
2013-04-25 17:50:00,56.3,12.1,29.95,WSW,252,12.8,18.8,17,0.00,,CLR,0.00,VWS V14.01,2013-04-25 23:50:00,
2013-04-25 17:55:00,54.3,11.7,29.95,SW,233,8.3,18.8,18,0.00,,CLR,0.00,VWS V14.01,2013-04-25 23:55:00,
2013-04-25 18:00:00,55.6,11.5,29.95,SW,236,15.0,18.8,17,0.00,,CLR,0.00,VWS V14.01,2013-04-26 00:00:00,
2013-04-25 18:05:00,56.8,12.5,29.95,WSW,258,8.1,13.6,17,0.00,,CLR,0.00,VWS V14.01,2013-04-26 00:05:00,
2013-04-25 18:10:00,58.1,16.1,29.95,WSW,239,11.4,17.4,19,0.00,,CLR,0.00,VWS V14.01,2013-04-26 00:10:00,
2013-04-25 18:15:00,56.3,15.8,29.95,West,278,7.6,17.4,20,0.00,,CLR,0.00,VWS V14.01,2013-04-26 00:15:00,
2013-04-25 18:20:00,57.9,15.9,29.95,WSW,238,15.0,17.4,19,0.00,,CLR,0.00,VWS V14.01,2013-04-26 00:20:00,
2013-04-25 18:25:00,57.2,15.3,29.95,SW,229,11.9,17.4,19,0.00,,CLR,0.00,VWS V14.01,2013-04-26 00:25:00,
2013-04-25 18:30:00,55.6,15.2,29.95,West,280,6.3,17.4,20,0.00,,CLR,0.00,VWS V14.01,2013-04-26 00:30:00,
2013-04-25 18:35:00,55.2,14.9,29.95,WSW,243,5.4,6.3,20,0.00,,CLR,0.00,VWS V14.01,2013-04-26 00:35:00,
2013-04-25 18:40:00,59.2,14.4,29.95,SW,229,7.2,11.9,17,0.00,,CLR,0.00,VWS V14.01,2013-04-26 00:40:00,
2013-04-25 18:45:00,61.3,14.8,29.95,WSW,238,5.8,11.9,16,0.00,,CLR,0.00,VWS V14.01,2013-04-26 00:45:00,
2013-04-25 18:50:00,61.2,14.6,29.95,West,263,5.8,11.9,16,0.00,,CLR,0.00,VWS V14.01,2013-04-26 00:50:00,
2013-04-25 18:55:00,59.9,15.0,29.95,West,274,5.4,11.9,17,0.00,,CLR,0.00,VWS V14.01,2013-04-26 00:55:00,
2013-04-25 19:00:00,59.9,15.0,29.98,West,261,6.3,11.9,17,0.00,,CLR,0.00,VWS V14.01,2013-04-26 01:00:00,
2013-04-25 19:05:00,59.2,14.4,29.98,SW,220,6.3,11.4,17,0.00,,CLR,0.00,VWS V14.01,2013-04-26 01:05:00,
2013-04-25 19:10:00,58.6,14.0,29.98,WSW,244,7.6,11.4,17,0.00,,CLR,0.00,VWS V14.01,2013-04-26 01:10:00,
2013-04-25 19:15:00,58.5,16.4,29.98,West,269,7.6,11.4,19,0.00,,CLR,0.00,VWS V14.01,2013-04-26 01:15:00,
2013-04-25 19:20:00,57.2,15.3,29.98,WSW,242,4.9,11.4,19,0.00,,CLR,0.00,VWS V14.01,2013-04-26 01:20:00,
2013-04-25 19:25:00,53.6,13.5,29.98,West,272,5.4,11.4,20,0.00,,CLR,0.00,VWS V14.01,2013-04-26 01:25:00,
2013-04-25 19:30:00,52.0,13.3,29.98,WNW,287,9.2,11.4,21,0.00,,CLR,0.00,VWS V14.01,2013-04-26 01:30:00,
2013-04-25 19:35:00,51.1,15.6,29.98,West,276,6.3,8.1,24,0.00,,CLR,0.00,VWS V14.01,2013-04-26 01:35:00,
2013-04-25 19:40:00,50.4,14.9,29.98,West,268,6.3,8.1,24,0.00,,CLR,0.00,VWS V14.01,2013-04-26 01:40:00,
2013-04-25 19:45:00,50.2,16.6,29.98,West,272,5.4,8.7,26,0.00,,CLR,0.00,VWS V14.01,2013-04-26 01:45:00,
2013-04-25 19:50:00,49.1,15.7,29.98,West,262,5.4,8.7,26,0.00,,CLR,0.00,VWS V14.01,2013-04-26 01:50:00,
2013-04-25 19:55:00,48.7,15.4,29.98,West,260,5.4,8.7,26,0.00,,CLR,0.00,VWS V14.01,2013-04-26 01:55:00,
2013-04-25 20:00:00,48.2,15.8,29.98,West,281,6.3,8.7,27,0.00,,CLR,0.00,VWS V14.01,2013-04-26 02:00:00,
2013-04-25 20:05:00,46.9,14.7,29.98,West,276,5.8,6.3,27,0.00,,CLR,0.00,VWS V14.01,2013-04-26 02:05:00,
2013-04-25 20:10:00,46.2,14.9,29.98,WSW,255,4.0,6.7,28,0.00,,CLR,0.00,VWS V14.01,2013-04-26 02:10:00,
2013-04-25 20:15:00,45.9,15.4,29.98,WSW,249,5.4,6.7,29,0.00,,CLR,0.00,VWS V14.01,2013-04-26 02:15:00,
2013-04-25 20:20:00,44.2,14.8,29.98,West,269,4.0,6.7,30,0.00,,CLR,0.00,VWS V14.01,2013-04-26 02:20:00,
2013-04-25 20:25:00,43.9,15.2,29.98,WSW,246,6.3,6.7,31,0.00,,CLR,0.00,VWS V14.01,2013-04-26 02:25:00,
2013-04-25 20:30:00,44.6,15.9,30.01,West,260,6.3,6.7,31,0.00,,CLR,0.00,VWS V14.01,2013-04-26 02:30:00,
2013-04-25 20:35:00,44.6,15.9,30.01,West,266,6.3,8.7,31,0.00,,CLR,0.00,VWS V14.01,2013-04-26 02:35:00,
2013-04-25 20:40:00,44.6,15.9,30.01,WSW,248,8.1,8.7,31,0.00,,CLR,0.00,VWS V14.01,2013-04-26 02:40:00,
2013-04-25 20:45:00,44.6,15.9,30.01,WSW,254,7.2,8.7,31,0.00,,CLR,0.00,VWS V14.01,2013-04-26 02:45:00,
2013-04-25 20:50:00,45.3,16.5,30.01,SW,234,6.3,10.5,31,0.00,,CLR,0.00,VWS V14.01,2013-04-26 02:50:00,
2013-04-25 20:55:00,45.5,16.6,30.01,WSW,243,7.6,10.5,31,0.00,,CLR,0.00,VWS V14.01,2013-04-26 02:55:00,
2013-04-25 21:00:00,46.6,16.8,30.01,West,271,10.1,12.3,30,0.00,,CLR,0.00,VWS V14.01,2013-04-26 03:00:00,
2013-04-25 21:05:00,45.5,17.4,30.01,WSW,252,7.6,10.1,32,0.00,,CLR,0.00,VWS V14.01,2013-04-26 03:05:00,
2013-04-25 21:10:00,45.7,16.8,30.01,WSW,251,8.3,13.2,31,0.00,,CLR,0.00,VWS V14.01,2013-04-26 03:10:00,
2013-04-25 21:15:00,45.9,17.7,30.01,West,274,11.0,13.2,32,0.00,,CLR,0.00,VWS V14.01,2013-04-26 03:15:00,
2013-04-25 21:20:00,45.5,17.4,30.01,WNW,284,8.3,13.2,32,0.00,,CLR,0.00,VWS V14.01,2013-04-26 03:20:00,
2013-04-25 21:25:00,45.3,17.2,30.01,West,260,7.6,13.2,32,0.00,,CLR,0.00,VWS V14.01,2013-04-26 03:25:00,
2013-04-25 21:30:00,45.5,17.4,30.04,WSW,248,8.1,13.2,32,0.00,,CLR,0.00,VWS V14.01,2013-04-26 03:30:00,
2013-04-25 21:35:00,44.8,16.7,30.04,SW,232,13.2,13.2,32,0.00,,CLR,0.00,VWS V14.01,2013-04-26 03:35:00,
2013-04-25 21:40:00,45.1,17.1,30.04,WSW,240,10.1,13.6,32,0.00,,CLR,0.00,VWS V14.01,2013-04-26 03:40:00,
2013-04-25 21:45:00,45.1,17.1,30.04,WSW,249,11.4,13.6,32,0.00,,CLR,0.00,VWS V14.01,2013-04-26 03:45:00,
2013-04-25 21:50:00,45.1,17.1,30.04,SW,234,10.5,13.6,32,0.00,,CLR,0.00,VWS V14.01,2013-04-26 03:50:00,
2013-04-25 21:55:00,45.0,16.9,30.04,WSW,238,8.1,13.6,32,0.00,,CLR,0.00,VWS V14.01,2013-04-26 03:55:00,
2013-04-25 22:00:00,45.0,17.6,30.04,WSW,237,11.0,13.6,33,0.00,,CLR,0.00,VWS V14.01,2013-04-26 04:00:00,
2013-04-25 22:01:00,44.8,17.5,30.04,WSW,239,8.7,13.6,33,0.00,,CLR,0.00,VWS V14.01,2013-04-26 04:01:00,
2013-04-25 22:06:00,45.0,16.9,30.04,SW,232,13.6,13.6,32,0.00,,BKN120,0.00,VWS V14.01,2013-04-26 04:06:00,
2013-04-25 22:11:00,45.5,17.4,30.04,WSW,246,10.5,13.6,32,0.00,,BKN120,0.00,VWS V14.01,2013-04-26 04:11:00,
2013-04-25 22:16:00,45.1,17.1,30.04,WSW,247,9.6,13.6,32,0.00,,BKN120,0.00,VWS V14.01,2013-04-26 04:16:00,
2013-04-25 22:21:00,44.8,17.5,30.04,SW,231,10.5,13.6,33,0.00,,BKN120,0.00,VWS V14.01,2013-04-26 04:21:00,
2013-04-25 22:26:00,44.8,17.5,30.04,WSW,239,8.7,13.6,33,0.00,,BKN120,0.00,VWS V14.01,2013-04-26 04:26:00,
2013-04-25 22:31:00,44.8,17.5,30.07,WSW,254,6.3,13.6,33,0.00,,BKN120,0.00,VWS V14.01,2013-04-26 04:31:00,
2013-04-25 22:36:00,45.1,17.8,30.07,WSW,239,7.6,12.8,33,0.00,,BKN120,0.00,VWS V14.01,2013-04-26 04:36:00,
2013-04-25 22:41:00,44.6,17.3,30.07,NW,313,3.1,12.8,33,0.00,,BKN120,0.00,VWS V14.01,2013-04-26 04:41:00,
2013-04-25 22:46:00,44.8,16.7,30.07,West,281,3.6,12.8,32,0.00,,BKN120,0.00,VWS V14.01,2013-04-26 04:46:00,
2013-04-25 22:51:00,46.6,17.6,30.07,NW,313,4.9,12.8,31,0.00,,BKN120,0.00,VWS V14.01,2013-04-26 04:51:00,
2013-04-25 22:56:00,46.8,17.7,30.07,WNW,299,4.9,12.8,31,0.00,,BKN120,0.00,VWS V14.01,2013-04-26 04:56:00,
2013-04-25 23:01:00,47.1,18.1,30.07,NW,308,6.3,12.8,31,0.00,,BKN120,0.00,VWS V14.01,2013-04-26 05:01:00,
2013-04-25 23:06:00,47.3,18.2,30.07,NW,311,5.4,8.7,31,0.00,,SCT120,0.00,VWS V14.01,2013-04-26 05:06:00,
2013-04-25 23:11:00,47.7,17.8,30.07,NW,317,5.8,8.7,30,0.00,,SCT120,0.00,VWS V14.01,2013-04-26 05:11:00,
2013-04-25 23:16:00,47.5,17.6,30.07,NW,323,7.6,8.7,30,0.00,,SCT120,0.00,VWS V14.01,2013-04-26 05:16:00,
2013-04-25 23:21:00,46.9,17.9,30.07,WNW,298,5.4,8.7,31,0.00,,SCT120,0.00,VWS V14.01,2013-04-26 05:21:00,
2013-04-25 23:26:00,48.4,17.6,30.07,NW,306,5.8,10.5,29,0.00,,SCT120,0.00,VWS V14.01,2013-04-26 05:26:00,
2013-04-25 23:31:00,48.6,17.8,30.07,WNW,303,7.6,11.0,29,0.00,,SCT120,0.00,VWS V14.01,2013-04-26 05:31:00,
2013-04-25 23:36:00,48.2,17.5,30.07,WNW,301,8.1,10.1,29,0.00,,SCT120,0.00,VWS V14.01,2013-04-26 05:36:00,
2013-04-25 23:41:00,48.7,17.9,30.07,NW,309,8.7,14.1,29,0.00,,SCT120,0.00,VWS V14.01,2013-04-26 05:41:00,
2013-04-25 23:46:00,48.7,17.9,30.10,WNW,283,11.0,18.3,29,0.00,,SCT120,0.00,VWS V14.01,2013-04-26 05:46:00,
2013-04-25 23:51:00,48.6,17.8,30.10,WNW,296,11.9,18.3,29,0.00,,SCT120,0.00,VWS V14.01,2013-04-26 05:51:00,
2013-04-25 23:56:00,47.8,17.9,30.10,WNW,286,11.9,18.3,30,0.00,,SCT120,0.00,VWS V14.01,2013-04-26 05:56:00,